sensor_id;sensor_type;location;lat;lon;timestamp;P1;durP1;ratioP1;P2;durP2;ratioP2
7899;SDS011;3995;50.856;4.404;2023-04-24T00:01:15;8.63;;;6.97;;
7899;SDS011;3995;50.856;4.404;2023-04-24T00:03:43;11.50;;;7.03;;
7899;SDS011;3995;50.856;4.404;2023-04-24T00:06:10;9.53;;;7.17;;
7899;SDS011;3995;50.856;4.404;2023-04-24T00:08:38;13.67;;;6.70;;
7899;SDS011;3995;50.856;4.404;2023-04-24T00:11:05;10.43;;;6.47;;
7899;SDS011;3995;50.856;4.404;2023-04-24T00:13:32;10.73;;;6.80;;
7899;SDS011;3995;50.856;4.404;2023-04-24T00:15:59;11.10;;;7.37;;
7899;SDS011;3995;50.856;4.404;2023-04-24T00:18:26;9.60;;;6.87;;
7899;SDS011;3995;50.856;4.404;2023-04-24T00:20:55;12.10;;;7.87;;
7899;SDS011;3995;50.856;4.404;2023-04-24T00:23:22;8.87;;;7.00;;
7899;SDS011;3995;50.856;4.404;2023-04-24T00:25:49;9.57;;;7.33;;
7899;SDS011;3995;50.856;4.404;2023-04-24T00:28:16;14.30;;;6.70;;
7899;SDS011;3995;50.856;4.404;2023-04-24T00:30:44;10.17;;;6.63;;
7899;SDS011;3995;50.856;4.404;2023-04-24T00:33:11;9.33;;;7.20;;
7899;SDS011;3995;50.856;4.404;2023-04-24T00:35:38;12.43;;;7.70;;
7899;SDS011;3995;50.856;4.404;2023-04-24T00:38:07;10.30;;;7.00;;
7899;SDS011;3995;50.856;4.404;2023-04-24T00:40:35;11.10;;;7.03;;
7899;SDS011;3995;50.856;4.404;2023-04-24T00:43:02;11.20;;;6.90;;
7899;SDS011;3995;50.856;4.404;2023-04-24T00:45:29;11.93;;;6.70;;
7899;SDS011;3995;50.856;4.404;2023-04-24T00:47:56;10.03;;;6.93;;
7899;SDS011;3995;50.856;4.404;2023-04-24T00:50:24;11.80;;;6.53;;
7899;SDS011;3995;50.856;4.404;2023-04-24T00:52:51;13.93;;;7.50;;
7899;SDS011;3995;50.856;4.404;2023-04-24T00:55:20;11.60;;;7.20;;
7899;SDS011;3995;50.856;4.404;2023-04-24T00:57:47;11.73;;;7.07;;
7899;SDS011;3995;50.856;4.404;2023-04-24T01:00:15;9.87;;;6.27;;
7899;SDS011;3995;50.856;4.404;2023-04-24T01:02:44;13.73;;;6.70;;
7899;SDS011;3995;50.856;4.404;2023-04-24T01:05:12;10.20;;;7.40;;
7899;SDS011;3995;50.856;4.404;2023-04-24T01:07:40;10.70;;;6.37;;
7899;SDS011;3995;50.856;4.404;2023-04-24T01:10:09;11.87;;;7.40;;
7899;SDS011;3995;50.856;4.404;2023-04-24T01:12:38;14.10;;;7.83;;
7899;SDS011;3995;50.856;4.404;2023-04-24T01:15:05;9.30;;;6.30;;
7899;SDS011;3995;50.856;4.404;2023-04-24T01:17:33;10.40;;;6.37;;
7899;SDS011;3995;50.856;4.404;2023-04-24T01:20:01;11.70;;;7.30;;
7899;SDS011;3995;50.856;4.404;2023-04-24T01:22:32;9.23;;;6.47;;
7899;SDS011;3995;50.856;4.404;2023-04-24T01:25:02;9.87;;;6.57;;
7899;SDS011;3995;50.856;4.404;2023-04-24T01:27:30;10.00;;;6.60;;
7899;SDS011;3995;50.856;4.404;2023-04-24T01:29:57;8.10;;;5.60;;
7899;SDS011;3995;50.856;4.404;2023-04-24T01:32:25;11.23;;;6.57;;
7899;SDS011;3995;50.856;4.404;2023-04-24T01:34:53;7.73;;;5.80;;
7899;SDS011;3995;50.856;4.404;2023-04-24T01:37:20;9.40;;;6.43;;
7899;SDS011;3995;50.856;4.404;2023-04-24T01:39:49;7.57;;;5.80;;
7899;SDS011;3995;50.856;4.404;2023-04-24T01:42:17;7.83;;;5.97;;
7899;SDS011;3995;50.856;4.404;2023-04-24T01:44:44;8.60;;;5.97;;
7899;SDS011;3995;50.856;4.404;2023-04-24T01:47:12;7.57;;;5.47;;
7899;SDS011;3995;50.856;4.404;2023-04-24T01:49:39;7.40;;;5.30;;
7899;SDS011;3995;50.856;4.404;2023-04-24T01:52:07;7.93;;;5.57;;
7899;SDS011;3995;50.856;4.404;2023-04-24T01:54:34;7.80;;;5.27;;
7899;SDS011;3995;50.856;4.404;2023-04-24T01:57:02;8.13;;;5.43;;
7899;SDS011;3995;50.856;4.404;2023-04-24T01:59:29;11.87;;;6.10;;
7899;SDS011;3995;50.856;4.404;2023-04-24T02:01:57;7.70;;;6.27;;
7899;SDS011;3995;50.856;4.404;2023-04-24T02:04:25;6.03;;;5.43;;
7899;SDS011;3995;50.856;4.404;2023-04-24T02:06:52;7.90;;;6.27;;
7899;SDS011;3995;50.856;4.404;2023-04-24T02:09:18;9.00;;;5.90;;
7899;SDS011;3995;50.856;4.404;2023-04-24T02:11:45;7.10;;;6.10;;
7899;SDS011;3995;50.856;4.404;2023-04-24T02:14:14;7.70;;;6.40;;
7899;SDS011;3995;50.856;4.404;2023-04-24T02:16:41;8.00;;;6.00;;
7899;SDS011;3995;50.856;4.404;2023-04-24T02:19:08;10.07;;;6.77;;
7899;SDS011;3995;50.856;4.404;2023-04-24T02:21:35;10.17;;;6.63;;
7899;SDS011;3995;50.856;4.404;2023-04-24T02:24:02;8.93;;;6.87;;
7899;SDS011;3995;50.856;4.404;2023-04-24T02:26:30;7.40;;;6.50;;
7899;SDS011;3995;50.856;4.404;2023-04-24T02:28:57;10.57;;;6.80;;
7899;SDS011;3995;50.856;4.404;2023-04-24T02:31:26;9.77;;;6.90;;
7899;SDS011;3995;50.856;4.404;2023-04-24T02:33:53;8.77;;;6.63;;
7899;SDS011;3995;50.856;4.404;2023-04-24T02:36:20;9.57;;;5.80;;
7899;SDS011;3995;50.856;4.404;2023-04-24T02:39:14;8.80;;;5.60;;
7899;SDS011;3995;50.856;4.404;2023-04-24T02:41:41;7.30;;;6.60;;
7899;SDS011;3995;50.856;4.404;2023-04-24T02:44:08;7.73;;;6.10;;
7899;SDS011;3995;50.856;4.404;2023-04-24T02:46:35;7.10;;;5.97;;
7899;SDS011;3995;50.856;4.404;2023-04-24T02:49:02;8.27;;;6.27;;
7899;SDS011;3995;50.856;4.404;2023-04-24T02:51:30;10.30;;;6.23;;
7899;SDS011;3995;50.856;4.404;2023-04-24T02:53:57;8.60;;;6.07;;
7899;SDS011;3995;50.856;4.404;2023-04-24T02:56:25;8.50;;;6.50;;
7899;SDS011;3995;50.856;4.404;2023-04-24T02:58:52;8.87;;;6.03;;
7899;SDS011;3995;50.856;4.404;2023-04-24T03:01:19;8.60;;;6.17;;
7899;SDS011;3995;50.856;4.404;2023-04-24T03:03:46;9.10;;;5.80;;
7899;SDS011;3995;50.856;4.404;2023-04-24T03:06:14;8.43;;;6.03;;
7899;SDS011;3995;50.856;4.404;2023-04-24T03:08:41;10.80;;;5.40;;
7899;SDS011;3995;50.856;4.404;2023-04-24T03:11:08;10.53;;;5.97;;
7899;SDS011;3995;50.856;4.404;2023-04-24T03:13:37;6.33;;;4.87;;
7899;SDS011;3995;50.856;4.404;2023-04-24T03:16:05;11.33;;;4.70;;
7899;SDS011;3995;50.856;4.404;2023-04-24T03:18:31;8.03;;;5.07;;
7899;SDS011;3995;50.856;4.404;2023-04-24T03:20:59;6.00;;;4.90;;
7899;SDS011;3995;50.856;4.404;2023-04-24T03:23:28;6.80;;;4.83;;
7899;SDS011;3995;50.856;4.404;2023-04-24T03:25:55;5.43;;;4.90;;
7899;SDS011;3995;50.856;4.404;2023-04-24T03:28:22;5.73;;;4.20;;
7899;SDS011;3995;50.856;4.404;2023-04-24T03:30:51;7.47;;;4.60;;
7899;SDS011;3995;50.856;4.404;2023-04-24T03:33:19;6.13;;;5.47;;
7899;SDS011;3995;50.856;4.404;2023-04-24T03:35:46;6.37;;;4.53;;
7899;SDS011;3995;50.856;4.404;2023-04-24T03:38:13;4.57;;;4.13;;
7899;SDS011;3995;50.856;4.404;2023-04-24T03:40:40;7.07;;;4.80;;
7899;SDS011;3995;50.856;4.404;2023-04-24T03:43:07;6.43;;;4.60;;
7899;SDS011;3995;50.856;4.404;2023-04-24T03:45:35;7.90;;;4.40;;
7899;SDS011;3995;50.856;4.404;2023-04-24T03:48:03;4.17;;;3.77;;
7899;SDS011;3995;50.856;4.404;2023-04-24T03:50:31;5.37;;;4.33;;
7899;SDS011;3995;50.856;4.404;2023-04-24T03:52:58;5.10;;;4.40;;
7899;SDS011;3995;50.856;4.404;2023-04-24T03:55:25;4.90;;;4.00;;
7899;SDS011;3995;50.856;4.404;2023-04-24T03:57:53;5.23;;;3.80;;
7899;SDS011;3995;50.856;4.404;2023-04-24T04:00:20;4.57;;;3.80;;
7899;SDS011;3995;50.856;4.404;2023-04-24T04:02:47;7.03;;;4.20;;
7899;SDS011;3995;50.856;4.404;2023-04-24T04:05:17;3.87;;;3.10;;
7899;SDS011;3995;50.856;4.404;2023-04-24T04:07:44;4.33;;;3.23;;
7899;SDS011;3995;50.856;4.404;2023-04-24T04:10:11;3.40;;;3.10;;
7899;SDS011;3995;50.856;4.404;2023-04-24T04:12:38;4.27;;;3.37;;
7899;SDS011;3995;50.856;4.404;2023-04-24T04:15:05;6.50;;;3.10;;
7899;SDS011;3995;50.856;4.404;2023-04-24T04:17:35;6.87;;;3.20;;
7899;SDS011;3995;50.856;4.404;2023-04-24T04:20:03;3.10;;;2.77;;
7899;SDS011;3995;50.856;4.404;2023-04-24T04:22:35;4.67;;;3.57;;
7899;SDS011;3995;50.856;4.404;2023-04-24T04:25:03;5.03;;;2.63;;
7899;SDS011;3995;50.856;4.404;2023-04-24T04:27:30;3.63;;;3.00;;
7899;SDS011;3995;50.856;4.404;2023-04-24T04:29:58;4.57;;;3.53;;
7899;SDS011;3995;50.856;4.404;2023-04-24T04:32:26;4.37;;;3.03;;
7899;SDS011;3995;50.856;4.404;2023-04-24T04:34:53;5.87;;;3.47;;
7899;SDS011;3995;50.856;4.404;2023-04-24T04:37:20;3.47;;;2.83;;
7899;SDS011;3995;50.856;4.404;2023-04-24T04:39:48;4.03;;;3.57;;
7899;SDS011;3995;50.856;4.404;2023-04-24T04:42:15;4.23;;;2.80;;
7899;SDS011;3995;50.856;4.404;2023-04-24T04:44:46;3.70;;;2.63;;
7899;SDS011;3995;50.856;4.404;2023-04-24T04:47:13;3.40;;;2.67;;
7899;SDS011;3995;50.856;4.404;2023-04-24T04:49:41;5.73;;;3.10;;
7899;SDS011;3995;50.856;4.404;2023-04-24T04:52:08;3.93;;;3.50;;
7899;SDS011;3995;50.856;4.404;2023-04-24T04:54:35;4.03;;;3.00;;
7899;SDS011;3995;50.856;4.404;2023-04-24T04:57:04;3.83;;;3.33;;
7899;SDS011;3995;50.856;4.404;2023-04-24T04:59:32;4.63;;;3.70;;
7899;SDS011;3995;50.856;4.404;2023-04-24T05:01:59;8.87;;;5.10;;
7899;SDS011;3995;50.856;4.404;2023-04-24T05:04:26;4.57;;;4.13;;
7899;SDS011;3995;50.856;4.404;2023-04-24T05:06:53;6.80;;;4.20;;
7899;SDS011;3995;50.856;4.404;2023-04-24T05:09:21;7.70;;;4.83;;
7899;SDS011;3995;50.856;4.404;2023-04-24T05:11:52;6.07;;;4.90;;
7899;SDS011;3995;50.856;4.404;2023-04-24T05:14:21;7.73;;;5.00;;
7899;SDS011;3995;50.856;4.404;2023-04-24T05:16:48;6.67;;;5.27;;
7899;SDS011;3995;50.856;4.404;2023-04-24T05:19:16;9.10;;;5.50;;
7899;SDS011;3995;50.856;4.404;2023-04-24T05:21:43;9.87;;;6.07;;
7899;SDS011;3995;50.856;4.404;2023-04-24T05:24:10;6.03;;;5.40;;
7899;SDS011;3995;50.856;4.404;2023-04-24T05:26:38;10.47;;;6.80;;
7899;SDS011;3995;50.856;4.404;2023-04-24T05:29:04;11.93;;;6.20;;
7899;SDS011;3995;50.856;4.404;2023-04-24T05:31:33;7.27;;;5.37;;
7899;SDS011;3995;50.856;4.404;2023-04-24T05:34:00;7.20;;;5.57;;
7899;SDS011;3995;50.856;4.404;2023-04-24T05:36:27;7.57;;;5.63;;
7899;SDS011;3995;50.856;4.404;2023-04-24T05:38:55;9.53;;;5.67;;
7899;SDS011;3995;50.856;4.404;2023-04-24T05:41:23;8.57;;;6.47;;
7899;SDS011;3995;50.856;4.404;2023-04-24T05:43:50;12.70;;;7.10;;
7899;SDS011;3995;50.856;4.404;2023-04-24T05:46:17;13.17;;;5.93;;
7899;SDS011;3995;50.856;4.404;2023-04-24T05:48:45;11.33;;;5.87;;
7899;SDS011;3995;50.856;4.404;2023-04-24T05:51:12;10.67;;;6.40;;
7899;SDS011;3995;50.856;4.404;2023-04-24T05:53:39;6.70;;;5.13;;
7899;SDS011;3995;50.856;4.404;2023-04-24T05:56:06;10.90;;;6.07;;
7899;SDS011;3995;50.856;4.404;2023-04-24T05:58:34;13.00;;;6.30;;
7899;SDS011;3995;50.856;4.404;2023-04-24T06:01:02;10.40;;;6.43;;
7899;SDS011;3995;50.856;4.404;2023-04-24T06:03:29;6.87;;;5.80;;
7899;SDS011;3995;50.856;4.404;2023-04-24T06:05:57;9.00;;;5.73;;
7899;SDS011;3995;50.856;4.404;2023-04-24T06:08:25;9.63;;;6.10;;
7899;SDS011;3995;50.856;4.404;2023-04-24T06:10:52;6.70;;;5.57;;
7899;SDS011;3995;50.856;4.404;2023-04-24T06:13:18;7.43;;;5.47;;
7899;SDS011;3995;50.856;4.404;2023-04-24T06:15:45;8.73;;;5.80;;
7899;SDS011;3995;50.856;4.404;2023-04-24T06:18:12;10.70;;;6.00;;
7899;SDS011;3995;50.856;4.404;2023-04-24T06:20:40;9.50;;;6.20;;
7899;SDS011;3995;50.856;4.404;2023-04-24T06:23:08;9.07;;;5.93;;
7899;SDS011;3995;50.856;4.404;2023-04-24T06:25:35;11.20;;;6.53;;
7899;SDS011;3995;50.856;4.404;2023-04-24T06:28:02;13.33;;;6.50;;
7899;SDS011;3995;50.856;4.404;2023-04-24T06:30:29;9.00;;;6.20;;
7899;SDS011;3995;50.856;4.404;2023-04-24T06:32:57;11.57;;;6.73;;
7899;SDS011;3995;50.856;4.404;2023-04-24T06:35:24;7.60;;;6.40;;
7899;SDS011;3995;50.856;4.404;2023-04-24T06:37:51;11.47;;;7.10;;
7899;SDS011;3995;50.856;4.404;2023-04-24T06:40:21;11.90;;;6.70;;
7899;SDS011;3995;50.856;4.404;2023-04-24T06:42:50;11.23;;;7.53;;
7899;SDS011;3995;50.856;4.404;2023-04-24T06:45:17;8.20;;;6.97;;
7899;SDS011;3995;50.856;4.404;2023-04-24T06:47:44;12.37;;;7.50;;
7899;SDS011;3995;50.856;4.404;2023-04-24T06:50:11;14.93;;;7.07;;
7899;SDS011;3995;50.856;4.404;2023-04-24T06:52:40;12.77;;;8.10;;
7899;SDS011;3995;50.856;4.404;2023-04-24T06:55:07;15.60;;;7.67;;
7899;SDS011;3995;50.856;4.404;2023-04-24T06:57:37;13.13;;;8.50;;
7899;SDS011;3995;50.856;4.404;2023-04-24T07:00:05;11.37;;;8.23;;
7899;SDS011;3995;50.856;4.404;2023-04-24T07:02:34;15.37;;;8.40;;
7899;SDS011;3995;50.856;4.404;2023-04-24T07:05:02;11.47;;;7.73;;
7899;SDS011;3995;50.856;4.404;2023-04-24T07:07:29;15.17;;;8.70;;
7899;SDS011;3995;50.856;4.404;2023-04-24T07:09:57;15.67;;;8.67;;
7899;SDS011;3995;50.856;4.404;2023-04-24T07:12:23;15.33;;;8.43;;
7899;SDS011;3995;50.856;4.404;2023-04-24T07:14:52;12.30;;;8.20;;
7899;SDS011;3995;50.856;4.404;2023-04-24T07:17:19;11.13;;;8.33;;
7899;SDS011;3995;50.856;4.404;2023-04-24T07:19:47;9.30;;;7.63;;
7899;SDS011;3995;50.856;4.404;2023-04-24T07:22:14;16.17;;;8.40;;
7899;SDS011;3995;50.856;4.404;2023-04-24T07:24:42;11.07;;;7.37;;
7899;SDS011;3995;50.856;4.404;2023-04-24T07:27:09;10.90;;;7.00;;
7899;SDS011;3995;50.856;4.404;2023-04-24T07:29:36;12.57;;;7.43;;
7899;SDS011;3995;50.856;4.404;2023-04-24T07:32:06;11.70;;;7.13;;
7899;SDS011;3995;50.856;4.404;2023-04-24T07:34:34;9.00;;;6.33;;
7899;SDS011;3995;50.856;4.404;2023-04-24T07:37:02;13.57;;;7.60;;
7899;SDS011;3995;50.856;4.404;2023-04-24T07:39:29;9.20;;;6.83;;
7899;SDS011;3995;50.856;4.404;2023-04-24T07:41:56;10.90;;;6.57;;
7899;SDS011;3995;50.856;4.404;2023-04-24T07:44:24;10.97;;;6.00;;
7899;SDS011;3995;50.856;4.404;2023-04-24T07:46:52;10.50;;;5.40;;
7899;SDS011;3995;50.856;4.404;2023-04-24T07:49:21;9.33;;;5.43;;
7899;SDS011;3995;50.856;4.404;2023-04-24T07:51:48;10.77;;;5.93;;
7899;SDS011;3995;50.856;4.404;2023-04-24T07:54:16;11.23;;;5.40;;
7899;SDS011;3995;50.856;4.404;2023-04-24T07:56:43;11.13;;;6.00;;
7899;SDS011;3995;50.856;4.404;2023-04-24T07:59:11;9.83;;;7.07;;
7899;SDS011;3995;50.856;4.404;2023-04-24T08:01:38;10.77;;;6.80;;
7899;SDS011;3995;50.856;4.404;2023-04-24T08:04:05;13.40;;;6.80;;
7899;SDS011;3995;50.856;4.404;2023-04-24T08:06:34;13.93;;;6.73;;
7899;SDS011;3995;50.856;4.404;2023-04-24T08:09:01;14.10;;;7.13;;
7899;SDS011;3995;50.856;4.404;2023-04-24T08:11:28;14.87;;;7.67;;
7899;SDS011;3995;50.856;4.404;2023-04-24T08:13:56;11.10;;;6.50;;
7899;SDS011;3995;50.856;4.404;2023-04-24T08:16:24;12.40;;;6.80;;
7899;SDS011;3995;50.856;4.404;2023-04-24T08:18:51;14.83;;;7.70;;
7899;SDS011;3995;50.856;4.404;2023-04-24T08:21:19;13.43;;;5.77;;
7899;SDS011;3995;50.856;4.404;2023-04-24T08:23:48;13.70;;;6.37;;
7899;SDS011;3995;50.856;4.404;2023-04-24T08:26:15;8.57;;;5.27;;
7899;SDS011;3995;50.856;4.404;2023-04-24T08:28:43;9.53;;;5.97;;
7899;SDS011;3995;50.856;4.404;2023-04-24T08:31:10;10.03;;;5.13;;
7899;SDS011;3995;50.856;4.404;2023-04-24T08:33:37;13.27;;;5.90;;
7899;SDS011;3995;50.856;4.404;2023-04-24T08:36:06;11.43;;;6.07;;
7899;SDS011;3995;50.856;4.404;2023-04-24T08:38:33;11.77;;;5.17;;
7899;SDS011;3995;50.856;4.404;2023-04-24T08:41:02;11.07;;;5.33;;
7899;SDS011;3995;50.856;4.404;2023-04-24T08:43:30;12.93;;;5.00;;
7899;SDS011;3995;50.856;4.404;2023-04-24T08:46:01;11.33;;;5.00;;
7899;SDS011;3995;50.856;4.404;2023-04-24T08:48:30;9.50;;;5.30;;
7899;SDS011;3995;50.856;4.404;2023-04-24T08:50:59;11.50;;;5.60;;
7899;SDS011;3995;50.856;4.404;2023-04-24T08:53:26;9.60;;;4.87;;
7899;SDS011;3995;50.856;4.404;2023-04-24T08:55:54;9.63;;;4.57;;
7899;SDS011;3995;50.856;4.404;2023-04-24T08:58:23;12.47;;;4.80;;
7899;SDS011;3995;50.856;4.404;2023-04-24T09:00:52;8.50;;;4.10;;
7899;SDS011;3995;50.856;4.404;2023-04-24T09:03:21;7.27;;;4.20;;
7899;SDS011;3995;50.856;4.404;2023-04-24T09:05:48;14.30;;;5.13;;
7899;SDS011;3995;50.856;4.404;2023-04-24T09:08:17;8.20;;;3.50;;
7899;SDS011;3995;50.856;4.404;2023-04-24T09:10:45;9.23;;;5.20;;
7899;SDS011;3995;50.856;4.404;2023-04-24T09:13:12;13.57;;;4.70;;
7899;SDS011;3995;50.856;4.404;2023-04-24T09:15:42;11.77;;;4.73;;
7899;SDS011;3995;50.856;4.404;2023-04-24T09:18:09;6.20;;;3.67;;
7899;SDS011;3995;50.856;4.404;2023-04-24T09:23:26;11.20;;;4.30;;
7899;SDS011;3995;50.856;4.404;2023-04-24T09:25:54;7.63;;;4.07;;
7899;SDS011;3995;50.856;4.404;2023-04-24T09:28:25;8.13;;;3.50;;
7899;SDS011;3995;50.856;4.404;2023-04-24T09:31:03;7.53;;;4.60;;
7899;SDS011;3995;50.856;4.404;2023-04-24T09:33:32;9.60;;;3.87;;
7899;SDS011;3995;50.856;4.404;2023-04-24T09:36:00;7.67;;;4.00;;
7899;SDS011;3995;50.856;4.404;2023-04-24T09:38:30;6.90;;;3.70;;
7899;SDS011;3995;50.856;4.404;2023-04-24T09:40:59;5.37;;;3.50;;
7899;SDS011;3995;50.856;4.404;2023-04-24T09:43:31;10.93;;;4.73;;
7899;SDS011;3995;50.856;4.404;2023-04-24T09:45:58;8.30;;;3.27;;
7899;SDS011;3995;50.856;4.404;2023-04-24T09:48:32;7.70;;;4.23;;
7899;SDS011;3995;50.856;4.404;2023-04-24T09:51:00;8.87;;;4.23;;
7899;SDS011;3995;50.856;4.404;2023-04-24T09:53:32;8.23;;;3.50;;
7899;SDS011;3995;50.856;4.404;2023-04-24T09:56:02;8.80;;;4.53;;
7899;SDS011;3995;50.856;4.404;2023-04-24T09:58:29;8.30;;;3.13;;
7899;SDS011;3995;50.856;4.404;2023-04-24T10:00:57;8.03;;;4.10;;
7899;SDS011;3995;50.856;4.404;2023-04-24T10:03:24;6.50;;;3.73;;
7899;SDS011;3995;50.856;4.404;2023-04-24T10:05:54;10.33;;;3.97;;
7899;SDS011;3995;50.856;4.404;2023-04-24T10:08:25;7.33;;;3.20;;
7899;SDS011;3995;50.856;4.404;2023-04-24T10:11:02;4.60;;;2.90;;
7899;SDS011;3995;50.856;4.404;2023-04-24T10:13:29;7.80;;;3.40;;
7899;SDS011;3995;50.856;4.404;2023-04-24T10:15:59;7.80;;;3.50;;
7899;SDS011;3995;50.856;4.404;2023-04-24T10:18:26;7.90;;;3.63;;
7899;SDS011;3995;50.856;4.404;2023-04-24T10:20:55;12.27;;;4.50;;
7899;SDS011;3995;50.856;4.404;2023-04-24T10:23:24;5.97;;;3.50;;
7899;SDS011;3995;50.856;4.404;2023-04-24T10:25:54;9.13;;;3.97;;
7899;SDS011;3995;50.856;4.404;2023-04-24T10:28:30;10.13;;;3.17;;
7899;SDS011;3995;50.856;4.404;2023-04-24T10:31:00;10.20;;;3.20;;
7899;SDS011;3995;50.856;4.404;2023-04-24T10:33:28;6.77;;;3.53;;
7899;SDS011;3995;50.856;4.404;2023-04-24T10:35:58;9.10;;;3.97;;
7899;SDS011;3995;50.856;4.404;2023-04-24T10:38:26;6.80;;;3.70;;
7899;SDS011;3995;50.856;4.404;2023-04-24T10:41:06;7.40;;;3.30;;
7899;SDS011;3995;50.856;4.404;2023-04-24T10:43:34;9.23;;;4.37;;
7899;SDS011;3995;50.856;4.404;2023-04-24T10:46:02;8.53;;;3.73;;
7899;SDS011;3995;50.856;4.404;2023-04-24T10:48:31;9.53;;;4.20;;
7899;SDS011;3995;50.856;4.404;2023-04-24T10:51:00;6.23;;;3.50;;
7899;SDS011;3995;50.856;4.404;2023-04-24T10:53:28;8.30;;;3.43;;
7899;SDS011;3995;50.856;4.404;2023-04-24T10:56:04;7.97;;;4.30;;
7899;SDS011;3995;50.856;4.404;2023-04-24T10:58:35;6.13;;;3.30;;
7899;SDS011;3995;50.856;4.404;2023-04-24T11:01:05;8.60;;;4.13;;
7899;SDS011;3995;50.856;4.404;2023-04-24T11:03:33;6.53;;;3.87;;
7899;SDS011;3995;50.856;4.404;2023-04-24T11:06:03;6.63;;;3.80;;
7899;SDS011;3995;50.856;4.404;2023-04-24T11:08:37;6.53;;;4.67;;
7899;SDS011;3995;50.856;4.404;2023-04-24T11:11:09;6.40;;;3.97;;
7899;SDS011;3995;50.856;4.404;2023-04-24T11:16:33;8.30;;;4.33;;
7899;SDS011;3995;50.856;4.404;2023-04-24T11:19:04;7.30;;;4.00;;
7899;SDS011;3995;50.856;4.404;2023-04-24T11:21:40;11.03;;;4.23;;
7899;SDS011;3995;50.856;4.404;2023-04-24T11:24:21;8.00;;;3.50;;
7899;SDS011;3995;50.856;4.404;2023-04-24T11:27:00;9.50;;;4.17;;
7899;SDS011;3995;50.856;4.404;2023-04-24T11:29:39;8.57;;;4.67;;
7899;SDS011;3995;50.856;4.404;2023-04-24T11:35:02;16.30;;;6.43;;
7899;SDS011;3995;50.856;4.404;2023-04-24T11:37:36;9.97;;;6.03;;
7899;SDS011;3995;50.856;4.404;2023-04-24T11:40:05;5.80;;;3.73;;
7899;SDS011;3995;50.856;4.404;2023-04-24T11:42:35;7.37;;;4.20;;
7899;SDS011;3995;50.856;4.404;2023-04-24T11:45:07;7.47;;;4.97;;
7899;SDS011;3995;50.856;4.404;2023-04-24T11:47:35;4.80;;;3.93;;
7899;SDS011;3995;50.856;4.404;2023-04-24T11:50:04;7.97;;;3.97;;
7899;SDS011;3995;50.856;4.404;2023-04-24T11:52:33;6.40;;;3.50;;
7899;SDS011;3995;50.856;4.404;2023-04-24T11:55:06;8.70;;;4.23;;
7899;SDS011;3995;50.856;4.404;2023-04-24T11:57:34;7.50;;;4.07;;
7899;SDS011;3995;50.856;4.404;2023-04-24T12:00:02;5.43;;;3.70;;
7899;SDS011;3995;50.856;4.404;2023-04-24T12:02:30;8.90;;;4.70;;
7899;SDS011;3995;50.856;4.404;2023-04-24T12:04:57;7.03;;;3.90;;
7899;SDS011;3995;50.856;4.404;2023-04-24T12:07:24;10.53;;;4.40;;
7899;SDS011;3995;50.856;4.404;2023-04-24T12:09:57;6.00;;;3.40;;
7899;SDS011;3995;50.856;4.404;2023-04-24T12:12:26;7.70;;;4.70;;
7899;SDS011;3995;50.856;4.404;2023-04-24T12:14:54;5.67;;;4.10;;
7899;SDS011;3995;50.856;4.404;2023-04-24T12:17:26;11.63;;;4.77;;
7899;SDS011;3995;50.856;4.404;2023-04-24T12:19:57;9.57;;;4.33;;
7899;SDS011;3995;50.856;4.404;2023-04-24T12:22:25;12.60;;;5.13;;
7899;SDS011;3995;50.856;4.404;2023-04-24T12:24:57;8.17;;;4.47;;
7899;SDS011;3995;50.856;4.404;2023-04-24T12:27:25;5.97;;;3.80;;
7899;SDS011;3995;50.856;4.404;2023-04-24T12:29:53;7.03;;;3.77;;
7899;SDS011;3995;50.856;4.404;2023-04-24T12:32:23;3.73;;;3.10;;
7899;SDS011;3995;50.856;4.404;2023-04-24T12:34:51;7.33;;;3.40;;
7899;SDS011;3995;50.856;4.404;2023-04-24T12:37:19;8.57;;;3.20;;
7899;SDS011;3995;50.856;4.404;2023-04-24T12:40:01;4.80;;;3.90;;
7899;SDS011;3995;50.856;4.404;2023-04-24T12:42:30;6.37;;;4.23;;
7899;SDS011;3995;50.856;4.404;2023-04-24T12:44:57;5.03;;;3.37;;
7899;SDS011;3995;50.856;4.404;2023-04-24T12:47:26;5.13;;;3.47;;
7899;SDS011;3995;50.856;4.404;2023-04-24T12:49:53;4.53;;;2.77;;
7899;SDS011;3995;50.856;4.404;2023-04-24T12:52:20;3.60;;;2.97;;
7899;SDS011;3995;50.856;4.404;2023-04-24T12:54:48;4.53;;;3.20;;
7899;SDS011;3995;50.856;4.404;2023-04-24T12:57:18;6.73;;;3.07;;
7899;SDS011;3995;50.856;4.404;2023-04-24T12:59:45;5.00;;;3.20;;
7899;SDS011;3995;50.856;4.404;2023-04-24T13:02:20;4.00;;;2.67;;
7899;SDS011;3995;50.856;4.404;2023-04-24T13:04:51;6.70;;;2.97;;
7899;SDS011;3995;50.856;4.404;2023-04-24T13:07:18;8.10;;;4.07;;
7899;SDS011;3995;50.856;4.404;2023-04-24T13:09:47;7.00;;;2.80;;
7899;SDS011;3995;50.856;4.404;2023-04-24T13:12:15;8.30;;;3.67;;
7899;SDS011;3995;50.856;4.404;2023-04-24T13:14:44;6.07;;;3.10;;
7899;SDS011;3995;50.856;4.404;2023-04-24T13:17:11;6.20;;;3.00;;
7899;SDS011;3995;50.856;4.404;2023-04-24T13:19:40;5.77;;;2.90;;
7899;SDS011;3995;50.856;4.404;2023-04-24T13:22:08;4.70;;;3.03;;
7899;SDS011;3995;50.856;4.404;2023-04-24T13:24:37;4.70;;;3.07;;
7899;SDS011;3995;50.856;4.404;2023-04-24T13:27:06;8.23;;;3.27;;
7899;SDS011;3995;50.856;4.404;2023-04-24T13:29:33;4.70;;;3.00;;
7899;SDS011;3995;50.856;4.404;2023-04-24T13:32:02;6.00;;;2.90;;
7899;SDS011;3995;50.856;4.404;2023-04-24T13:34:32;7.33;;;3.13;;
7899;SDS011;3995;50.856;4.404;2023-04-24T13:37:01;11.60;;;8.53;;
7899;SDS011;3995;50.856;4.404;2023-04-24T13:39:29;7.83;;;3.03;;
7899;SDS011;3995;50.856;4.404;2023-04-24T13:41:58;10.17;;;3.27;;
7899;SDS011;3995;50.856;4.404;2023-04-24T13:44:29;8.40;;;3.03;;
7899;SDS011;3995;50.856;4.404;2023-04-24T13:46:57;12.03;;;2.90;;
7899;SDS011;3995;50.856;4.404;2023-04-24T13:49:26;7.27;;;2.90;;
7899;SDS011;3995;50.856;4.404;2023-04-24T13:51:54;4.97;;;2.43;;
7899;SDS011;3995;50.856;4.404;2023-04-24T13:54:24;2.40;;;1.90;;
7899;SDS011;3995;50.856;4.404;2023-04-24T13:56:55;4.73;;;2.10;;
7899;SDS011;3995;50.856;4.404;2023-04-24T13:59:24;3.80;;;2.57;;
7899;SDS011;3995;50.856;4.404;2023-04-24T14:01:51;4.63;;;2.37;;
7899;SDS011;3995;50.856;4.404;2023-04-24T14:04:19;6.00;;;2.77;;
7899;SDS011;3995;50.856;4.404;2023-04-24T14:06:48;3.57;;;2.43;;
7899;SDS011;3995;50.856;4.404;2023-04-24T14:09:15;3.90;;;2.20;;
7899;SDS011;3995;50.856;4.404;2023-04-24T14:11:42;4.70;;;2.80;;
7899;SDS011;3995;50.856;4.404;2023-04-24T14:14:11;3.43;;;1.97;;
7899;SDS011;3995;50.856;4.404;2023-04-24T14:16:38;3.53;;;1.73;;
7899;SDS011;3995;50.856;4.404;2023-04-24T14:19:06;5.03;;;2.23;;
7899;SDS011;3995;50.856;4.404;2023-04-24T14:21:33;3.53;;;1.77;;
7899;SDS011;3995;50.856;4.404;2023-04-24T14:24:02;4.70;;;2.33;;
7899;SDS011;3995;50.856;4.404;2023-04-24T14:26:29;6.60;;;2.07;;
7899;SDS011;3995;50.856;4.404;2023-04-24T14:28:56;13.57;;;2.67;;
7899;SDS011;3995;50.856;4.404;2023-04-24T14:31:24;7.07;;;2.57;;
7899;SDS011;3995;50.856;4.404;2023-04-24T14:33:52;8.67;;;2.97;;
7899;SDS011;3995;50.856;4.404;2023-04-24T14:36:19;10.13;;;2.87;;
7899;SDS011;3995;50.856;4.404;2023-04-24T14:38:46;14.87;;;3.43;;
7899;SDS011;3995;50.856;4.404;2023-04-24T14:41:15;5.80;;;2.50;;
7899;SDS011;3995;50.856;4.404;2023-04-24T14:43:42;7.63;;;3.60;;
7899;SDS011;3995;50.856;4.404;2023-04-24T14:46:10;4.20;;;2.40;;
7899;SDS011;3995;50.856;4.404;2023-04-24T14:48:37;15.10;;;2.80;;
7899;SDS011;3995;50.856;4.404;2023-04-24T14:51:04;10.03;;;2.93;;
7899;SDS011;3995;50.856;4.404;2023-04-24T14:53:31;4.57;;;2.20;;
7899;SDS011;3995;50.856;4.404;2023-04-24T14:55:58;6.17;;;2.20;;
7899;SDS011;3995;50.856;4.404;2023-04-24T14:58:27;7.30;;;2.63;;
7899;SDS011;3995;50.856;4.404;2023-04-24T15:00:55;4.80;;;2.27;;
7899;SDS011;3995;50.856;4.404;2023-04-24T15:03:22;5.23;;;2.60;;
7899;SDS011;3995;50.856;4.404;2023-04-24T15:05:49;12.77;;;2.63;;
7899;SDS011;3995;50.856;4.404;2023-04-24T15:08:16;5.87;;;2.13;;
7899;SDS011;3995;50.856;4.404;2023-04-24T15:10:44;3.80;;;2.03;;
7899;SDS011;3995;50.856;4.404;2023-04-24T15:13:11;7.70;;;2.90;;
7899;SDS011;3995;50.856;4.404;2023-04-24T15:15:40;11.80;;;2.57;;
7899;SDS011;3995;50.856;4.404;2023-04-24T15:18:08;2.00;;;1.70;;
7899;SDS011;3995;50.856;4.404;2023-04-24T15:20:36;4.40;;;1.77;;
7899;SDS011;3995;50.856;4.404;2023-04-24T15:23:07;4.10;;;2.00;;
7899;SDS011;3995;50.856;4.404;2023-04-24T15:25:35;2.20;;;1.60;;